createdAt,value
2023-03-14T00:02:00.860Z,4.90
2023-03-14T00:04:27.356Z,4.60
2023-03-14T00:06:53.867Z,4.65
2023-03-14T00:09:20.378Z,5.30
2023-03-14T00:11:47.579Z,4.47
2023-03-14T00:14:14.132Z,5.63
2023-03-14T00:16:41.018Z,4.60
2023-03-14T00:19:07.644Z,4.70
2023-03-14T00:21:34.142Z,4.72
2023-03-14T00:24:00.685Z,4.40
2023-03-14T00:26:27.332Z,3.55
2023-03-14T00:28:54.644Z,4.25
2023-03-14T00:31:21.732Z,4.25
2023-03-14T00:33:48.955Z,3.85
2023-03-14T00:36:18.022Z,4.65
2023-03-14T00:38:48.525Z,4.45
2023-03-14T00:41:17.480Z,4.75
2023-03-14T00:43:44.441Z,4.47
2023-03-14T00:46:11.567Z,4.70
2023-03-14T00:48:38.665Z,4.75
2023-03-14T00:51:08.259Z,5.25
2023-03-14T00:53:39.686Z,5.00
2023-03-14T00:56:08.587Z,4.75
2023-03-14T00:58:35.298Z,4.40
2023-03-14T01:01:10.808Z,4.18
2023-03-14T01:03:37.359Z,4.13
2023-03-14T01:06:16.090Z,3.92
2023-03-14T01:08:43.205Z,3.80
2023-03-14T01:11:11.690Z,4.10
2023-03-14T01:13:38.370Z,4.18
2023-03-14T01:16:07.566Z,3.95
2023-03-14T01:18:38.048Z,3.60
2023-03-14T01:21:13.413Z,3.72
2023-03-14T01:23:39.915Z,3.97
2023-03-14T01:26:11.377Z,3.50
2023-03-14T01:28:38.471Z,4.20
2023-03-14T01:31:10.834Z,3.60
2023-03-14T01:33:38.091Z,3.60
2023-03-14T01:36:05.468Z,4.50
2023-03-14T01:38:33.659Z,4.18
2023-03-14T01:41:00.844Z,4.45
2023-03-14T01:43:27.932Z,4.97
2023-03-14T01:46:06.738Z,4.60
2023-03-14T01:48:48.849Z,4.38
2023-03-14T01:51:22.614Z,4.90
2023-03-14T01:53:52.081Z,3.97
2023-03-14T01:56:19.695Z,4.70
2023-03-14T01:58:51.323Z,4.90
2023-03-14T02:01:21.182Z,3.97
2023-03-14T02:03:55.208Z,4.40
2023-03-14T02:06:27.383Z,4.07
2023-03-14T02:08:54.195Z,4.22
2023-03-14T02:11:20.777Z,3.05
2023-03-14T02:13:48.031Z,3.00
2023-03-14T02:16:14.555Z,3.40
2023-03-14T02:18:44.338Z,3.88
2023-03-14T02:21:23.321Z,3.35
2023-03-14T02:24:08.662Z,3.05
2023-03-14T02:26:44.420Z,4.35
2023-03-14T02:29:11.028Z,4.32
2023-03-14T02:31:37.707Z,3.72
2023-03-14T02:34:04.692Z,3.97
2023-03-14T02:36:31.407Z,4.25
2023-03-14T02:39:04.352Z,3.97
2023-03-14T02:41:31.281Z,4.20
2023-03-14T02:43:57.820Z,3.40
2023-03-14T02:46:24.515Z,3.60
2023-03-14T02:48:56.142Z,3.97
2023-03-14T02:51:23.373Z,4.25
2023-03-14T02:53:50.101Z,3.28
2023-03-14T02:56:16.648Z,3.38
2023-03-14T02:58:43.320Z,4.90
2023-03-14T03:01:09.907Z,3.72
2023-03-14T03:03:36.439Z,4.72
2023-03-14T03:06:03.465Z,4.15
2023-03-14T03:08:30.402Z,3.70
2023-03-14T03:10:58.194Z,4.72
2023-03-14T03:13:24.694Z,3.95
2023-03-14T03:15:51.205Z,4.25
2023-03-14T03:18:17.890Z,3.40
2023-03-14T03:20:44.443Z,3.63
2023-03-14T03:23:11.034Z,4.90
2023-03-14T03:25:37.537Z,3.58
2023-03-14T03:28:08.812Z,4.07
2023-03-14T03:30:42.220Z,3.13
2023-03-14T03:33:09.374Z,4.22
2023-03-14T03:35:47.724Z,3.33
2023-03-14T03:38:14.884Z,4.80
2023-03-14T03:40:41.906Z,4.32
2023-03-14T03:43:08.611Z,3.40
2023-03-14T03:45:35.647Z,3.28
2023-03-14T03:48:02.167Z,3.63
2023-03-14T03:50:28.751Z,3.38
2023-03-14T03:52:55.282Z,3.40
2023-03-14T03:55:21.761Z,3.03
2023-03-14T03:57:48.331Z,3.22
2023-03-14T04:00:14.985Z,3.10
2023-03-14T04:02:41.683Z,3.38
2023-03-14T04:05:08.793Z,3.58
2023-03-14T04:07:35.371Z,3.25
2023-03-14T04:10:01.970Z,3.17
2023-03-14T04:12:28.484Z,3.45
2023-03-14T04:14:55.101Z,3.15
2023-03-14T04:17:22.696Z,3.47
2023-03-14T04:19:52.482Z,3.65
2023-03-14T04:22:19.093Z,3.08
2023-03-14T04:24:45.662Z,3.70
2023-03-14T04:27:12.177Z,3.60
2023-03-14T04:29:38.664Z,2.92
2023-03-14T04:32:05.765Z,3.50
2023-03-14T04:34:32.334Z,3.05
2023-03-14T04:36:59.217Z,3.97
2023-03-14T04:39:25.741Z,3.00
2023-03-14T04:41:52.325Z,3.00
2023-03-14T04:44:19.052Z,3.85
2023-03-14T04:46:45.538Z,4.35
2023-03-14T04:49:12.182Z,3.58
2023-03-14T04:51:39.935Z,3.28
2023-03-14T04:54:06.416Z,3.58
2023-03-14T04:56:32.920Z,3.47
2023-03-14T04:58:59.467Z,2.80
2023-03-14T05:01:26.184Z,3.75
2023-03-14T05:03:52.783Z,3.55
2023-03-14T05:06:19.340Z,3.10
2023-03-14T05:08:46.045Z,3.35
2023-03-14T05:11:13.795Z,3.85
2023-03-14T05:13:40.793Z,3.00
2023-03-14T05:16:09.691Z,3.80
2023-03-14T05:18:36.543Z,3.28
2023-03-14T05:21:03.532Z,3.30
2023-03-14T05:23:30.518Z,3.85
2023-03-14T05:25:57.117Z,3.88
2023-03-14T05:28:23.713Z,4.03
2023-03-14T05:30:50.221Z,3.90
2023-03-14T05:33:16.701Z,3.40
2023-03-14T05:35:43.812Z,4.07
2023-03-14T05:38:10.451Z,3.78
2023-03-14T05:40:37.069Z,3.75
2023-03-14T05:43:03.691Z,3.45
2023-03-14T05:45:30.340Z,3.38
2023-03-14T05:47:56.905Z,4.18
2023-03-14T05:50:24.033Z,3.72
2023-03-14T05:52:50.545Z,4.30
2023-03-14T05:55:17.091Z,4.00
2023-03-14T05:57:43.596Z,3.92
2023-03-14T06:00:10.774Z,4.30
2023-03-14T06:02:37.279Z,4.50
2023-03-14T06:05:04.102Z,4.18
2023-03-14T06:07:30.608Z,3.60
2023-03-14T06:09:57.148Z,4.45
2023-03-14T06:12:25.971Z,4.00
2023-03-14T06:14:52.522Z,4.75
2023-03-14T06:17:19.055Z,3.28
2023-03-14T06:19:45.620Z,4.72
2023-03-14T06:22:12.181Z,4.10
2023-03-14T06:24:38.698Z,3.05
2023-03-14T06:27:05.232Z,4.30
2023-03-14T06:29:31.900Z,4.30
2023-03-14T06:31:58.418Z,4.55
2023-03-14T06:34:24.955Z,4.28
2023-03-14T06:36:51.486Z,4.13
2023-03-14T06:39:17.969Z,4.05
2023-03-14T06:41:44.466Z,3.92
2023-03-14T06:44:10.933Z,3.72
2023-03-14T06:46:37.456Z,4.60
2023-03-14T06:49:04.089Z,4.93
2023-03-14T06:51:30.613Z,4.70
2023-03-14T06:53:57.116Z,5.10
2023-03-14T06:56:23.626Z,5.10
2023-03-14T06:58:50.485Z,4.28
2023-03-14T07:01:26.959Z,4.10
2023-03-14T07:03:53.508Z,4.47
2023-03-14T07:06:20.608Z,4.90
2023-03-14T07:08:47.276Z,4.57
2023-03-14T07:11:13.837Z,3.97
2023-03-14T07:13:40.810Z,4.30
2023-03-14T07:16:08.040Z,4.65
2023-03-14T07:18:34.771Z,4.03
2023-03-14T07:21:01.290Z,4.25
2023-03-14T07:23:27.859Z,4.05
2023-03-14T07:25:54.914Z,4.53
2023-03-14T07:28:21.649Z,3.88
2023-03-14T07:30:48.907Z,4.30
2023-03-14T07:33:15.912Z,3.70
2023-03-14T07:35:42.654Z,4.57
2023-03-14T07:38:09.252Z,4.03
2023-03-14T07:40:35.772Z,4.15
2023-03-14T07:43:02.263Z,3.80
2023-03-14T07:45:28.788Z,3.63
2023-03-14T07:47:58.500Z,3.95
2023-03-14T07:50:26.676Z,4.78
2023-03-14T07:52:53.313Z,4.10
2023-03-14T07:55:19.861Z,4.40
2023-03-14T07:57:46.415Z,3.85
2023-03-14T08:00:16.013Z,3.20
2023-03-14T08:02:43.505Z,3.92
2023-03-14T08:05:10.463Z,4.30
2023-03-14T08:07:37.149Z,3.25
2023-03-14T08:10:04.393Z,3.92
2023-03-14T08:12:30.910Z,3.40
2023-03-14T08:14:57.411Z,4.13
2023-03-14T08:17:23.930Z,5.88
2023-03-14T08:19:50.445Z,4.32
2023-03-14T08:22:19.867Z,4.35
2023-03-14T08:24:46.644Z,3.75
2023-03-14T08:27:13.173Z,3.65
2023-03-14T08:29:41.570Z,3.80
2023-03-14T08:32:08.212Z,3.65
2023-03-14T08:34:34.920Z,3.58
2023-03-14T08:37:02.742Z,3.85
2023-03-14T08:39:30.843Z,3.28
2023-03-14T08:41:57.535Z,4.43
2023-03-14T08:44:24.086Z,4.82
2023-03-14T08:46:50.635Z,4.40
2023-03-14T08:49:17.183Z,4.68
2023-03-14T08:51:43.708Z,4.05
2023-03-14T08:54:12.031Z,4.30
2023-03-14T08:56:41.475Z,4.63
2023-03-14T08:59:09.201Z,4.82
2023-03-14T09:01:35.758Z,5.07
2023-03-14T09:04:02.336Z,4.82
2023-03-14T09:06:28.915Z,5.03
2023-03-14T09:08:55.504Z,5.35
2023-03-14T09:11:21.987Z,4.90
2023-03-14T09:13:49.691Z,5.03
2023-03-14T09:16:16.308Z,4.50
2023-03-14T09:18:43.093Z,3.80
2023-03-14T09:21:09.606Z,4.38
2023-03-14T09:23:36.139Z,4.50
2023-03-14T09:26:02.726Z,4.72
2023-03-14T09:28:29.216Z,4.60
2023-03-14T09:30:55.728Z,4.45
2023-03-14T09:33:22.911Z,4.70
2023-03-14T09:35:49.505Z,3.88
2023-03-14T09:38:17.434Z,4.82
2023-03-14T09:40:44.103Z,4.60
2023-03-14T09:43:15.096Z,4.18
2023-03-14T09:45:44.022Z,4.20
2023-03-14T09:48:21.524Z,4.78
2023-03-14T09:50:53.422Z,3.90
2023-03-14T09:53:27.371Z,4.15
2023-03-14T09:55:56.275Z,4.57
2023-03-14T09:58:25.404Z,4.43
2023-03-14T10:00:56.345Z,4.93
2023-03-14T10:03:32.347Z,4.75
2023-03-14T10:05:59.386Z,4.40
2023-03-14T10:08:26.502Z,4.85
2023-03-14T10:10:54.703Z,4.90
2023-03-14T10:13:29.711Z,4.65
2023-03-14T10:16:07.334Z,4.15
2023-03-14T10:18:36.858Z,3.53
2023-03-14T10:21:30.286Z,4.43
2023-03-14T10:24:18.294Z,4.13
2023-03-14T10:26:44.972Z,3.72
2023-03-14T10:29:13.795Z,4.32
2023-03-14T10:31:49.517Z,4.88
2023-03-14T10:34:22.010Z,4.30
2023-03-14T10:36:53.789Z,4.80
2023-03-14T10:39:28.099Z,4.47
2023-03-14T10:42:02.701Z,4.20
2023-03-14T10:44:31.394Z,3.13
2023-03-14T10:47:01.795Z,3.13
2023-03-14T10:49:37.290Z,4.07
2023-03-14T10:52:31.046Z,4.65
2023-03-14T10:55:10.102Z,4.75
2023-03-14T10:57:41.115Z,5.35
2023-03-14T11:00:18.039Z,4.82
2023-03-14T11:02:56.144Z,4.38
2023-03-14T11:05:34.289Z,4.47
2023-03-14T11:08:16.090Z,4.82
2023-03-14T11:10:46.718Z,4.65
2023-03-14T11:13:27.464Z,4.90
2023-03-14T11:16:15.929Z,4.07
2023-03-14T11:19:11.904Z,3.80
2023-03-14T11:21:47.942Z,3.97
2023-03-14T11:27:15.074Z,3.33
2023-03-14T11:30:01.125Z,3.88
2023-03-14T11:32:47.178Z,3.17
2023-03-14T11:35:20.705Z,4.10
2023-03-14T11:37:54.018Z,3.67
2023-03-14T11:40:29.185Z,4.07
2023-03-14T11:43:10.732Z,3.70
2023-03-14T11:45:41.022Z,3.17
2023-03-14T11:48:45.180Z,2.75
2023-03-14T11:51:24.094Z,3.28
2023-03-14T11:54:00.567Z,3.25
2023-03-14T11:56:40.774Z,3.17
2023-03-14T11:59:18.043Z,3.05
2023-03-14T12:02:00.224Z,3.17
2023-03-14T12:05:01.505Z,3.15
2023-03-14T12:07:41.147Z,3.60
2023-03-14T12:10:07.740Z,3.55
2023-03-14T12:12:35.380Z,3.42
2023-03-14T12:15:05.292Z,3.33
2023-03-14T12:17:41.150Z,3.05
2023-03-14T12:20:25.640Z,3.10
2023-03-14T12:22:57.868Z,2.88
2023-03-14T12:25:27.667Z,3.70
2023-03-14T12:27:56.940Z,3.30
2023-03-14T12:30:35.791Z,3.58
2023-03-14T12:33:11.237Z,3.20
2023-03-14T12:35:42.968Z,4.55
2023-03-14T12:38:31.353Z,4.63
2023-03-14T12:41:16.272Z,4.55
2023-03-14T12:43:43.016Z,4.72
2023-03-14T12:46:18.678Z,4.55
2023-03-14T12:48:47.926Z,4.28
2023-03-14T12:51:17.060Z,4.03
2023-03-14T12:54:24.044Z,4.10
2023-03-14T12:57:11.459Z,3.90
2023-03-14T12:59:51.546Z,3.75
2023-03-14T13:02:27.295Z,5.22
2023-03-14T13:05:03.173Z,4.30
2023-03-14T13:07:40.425Z,4.22
2023-03-14T13:13:14.819Z,4.25
2023-03-14T13:15:44.337Z,4.55
2023-03-14T13:18:17.234Z,4.38
2023-03-14T13:20:52.617Z,3.50
2023-03-14T13:23:21.860Z,5.50
2023-03-14T13:25:48.792Z,4.63
2023-03-14T13:28:15.689Z,4.57
2023-03-14T13:30:45.071Z,3.97
2023-03-14T13:33:17.710Z,4.25
2023-03-14T13:35:58.970Z,4.53
2023-03-14T13:38:28.470Z,3.72
2023-03-14T13:41:00.805Z,3.60
2023-03-14T13:43:32.429Z,3.97
2023-03-14T13:46:08.119Z,4.18
2023-03-14T13:48:41.290Z,3.47
2023-03-14T13:51:12.088Z,3.97
2023-03-14T13:54:13.901Z,3.72
2023-03-14T13:56:41.775Z,3.75
2023-03-14T13:59:25.485Z,4.13
2023-03-14T14:01:53.635Z,3.88
2023-03-14T14:04:25.508Z,4.53
2023-03-14T14:06:59.036Z,4.90
2023-03-14T14:09:26.775Z,5.22
2023-03-14T14:12:16.697Z,3.95
2023-03-14T14:14:52.045Z,4.03
2023-03-14T14:17:47.447Z,4.68
2023-03-14T14:20:32.830Z,3.78
2023-03-14T14:23:00.598Z,5.30
2023-03-14T14:25:27.413Z,5.53
2023-03-14T14:27:53.931Z,4.10
2023-03-14T14:30:20.422Z,4.40
2023-03-14T14:32:48.912Z,4.82
2023-03-14T14:35:25.984Z,5.22
2023-03-14T14:37:53.141Z,4.53
2023-03-14T14:40:25.764Z,4.65
2023-03-14T14:42:53.091Z,4.30
2023-03-14T14:45:28.671Z,5.10
2023-03-14T14:48:00.258Z,4.35
2023-03-14T14:50:40.316Z,4.20
2023-03-14T14:53:30.377Z,4.53
2023-03-14T14:56:04.951Z,4.78
2023-03-14T14:58:39.051Z,4.53
2023-03-14T15:01:16.619Z,5.40
2023-03-14T15:03:45.668Z,5.25
2023-03-14T15:06:14.263Z,4.38
2023-03-14T15:08:41.445Z,4.68
2023-03-14T15:11:17.065Z,4.43
2023-03-14T15:13:44.122Z,3.78
2023-03-14T15:16:12.960Z,4.50
2023-03-14T15:18:39.718Z,3.72
2023-03-14T15:21:06.458Z,4.72
2023-03-14T15:23:33.111Z,5.05
2023-03-14T15:25:59.663Z,3.85
2023-03-14T15:28:29.007Z,3.70
2023-03-14T15:30:58.211Z,3.92
2023-03-14T15:33:26.858Z,3.60
2023-03-14T15:35:54.565Z,3.28
2023-03-14T15:38:24.121Z,3.40
2023-03-14T15:40:51.825Z,3.50
2023-03-14T15:43:19.464Z,3.50
2023-03-14T15:45:46.706Z,2.78
2023-03-14T15:48:17.318Z,2.87
2023-03-14T15:50:44.605Z,2.60
2023-03-14T15:53:11.625Z,3.42
2023-03-14T15:55:38.433Z,2.92
2023-03-14T15:58:05.466Z,2.85
2023-03-14T16:00:32.813Z,2.85
2023-03-14T16:02:59.542Z,3.15
2023-03-14T16:05:26.208Z,3.38
2023-03-14T16:07:52.895Z,3.35
2023-03-14T16:10:19.942Z,3.20
2023-03-14T16:12:46.859Z,3.30
2023-03-14T16:15:13.556Z,3.15
2023-03-14T16:17:41.270Z,3.00
2023-03-14T16:20:09.477Z,3.00
2023-03-14T16:22:37.056Z,3.08
2023-03-14T16:25:08.053Z,3.50
2023-03-14T16:27:34.628Z,3.22
2023-03-14T16:30:01.231Z,3.10
2023-03-14T16:32:28.516Z,2.83
2023-03-14T16:34:55.463Z,3.67
2023-03-14T16:37:24.869Z,4.22
2023-03-14T16:40:11.286Z,3.08
2023-03-14T16:42:46.823Z,3.28
2023-03-14T16:45:23.333Z,3.50
2023-03-14T16:47:50.071Z,3.45
2023-03-14T16:50:16.962Z,3.50
2023-03-14T16:52:45.376Z,3.50
2023-03-14T16:55:12.085Z,3.05
2023-03-14T16:57:38.795Z,2.95
2023-03-14T17:00:06.730Z,3.25
2023-03-14T17:02:34.279Z,3.28
2023-03-14T17:05:00.915Z,3.47
2023-03-14T17:07:27.543Z,3.75
2023-03-14T17:09:55.107Z,3.40
2023-03-14T17:12:21.855Z,3.58
2023-03-14T17:14:48.493Z,3.75
2023-03-14T17:17:15.189Z,2.97
2023-03-14T17:19:41.917Z,3.55
2023-03-14T17:22:22.436Z,3.72
2023-03-14T17:24:51.283Z,4.20
2023-03-14T17:27:20.633Z,3.55
2023-03-14T17:29:48.487Z,3.92
2023-03-14T17:32:16.209Z,3.95
2023-03-14T17:34:43.370Z,4.10
2023-03-14T17:37:10.102Z,4.13
2023-03-14T17:39:38.305Z,3.67
2023-03-14T17:42:06.341Z,3.72
2023-03-14T17:44:33.418Z,3.70
2023-03-14T17:47:00.539Z,4.95
2023-03-14T17:49:30.419Z,3.83
2023-03-14T17:51:59.857Z,4.13
2023-03-14T17:54:26.564Z,3.92
2023-03-14T17:56:53.164Z,3.97
2023-03-14T17:59:19.813Z,4.63
2023-03-14T18:01:46.574Z,3.65
2023-03-14T18:04:14.460Z,3.20
2023-03-14T18:06:44.914Z,3.20
2023-03-14T18:09:11.564Z,3.70
2023-03-14T18:11:38.232Z,3.58
2023-03-14T18:14:07.847Z,3.50
2023-03-14T18:16:35.512Z,4.00
2023-03-14T18:19:02.259Z,4.03
2023-03-14T18:21:30.355Z,4.00
2023-03-14T18:23:57.076Z,3.95
2023-03-14T18:26:25.693Z,3.80
2023-03-14T18:28:52.352Z,3.40
2023-03-14T18:31:22.518Z,3.67
2023-03-14T18:33:50.012Z,3.60
2023-03-14T18:36:16.791Z,3.88
2023-03-14T18:38:43.788Z,3.45
2023-03-14T18:41:12.946Z,3.95
2023-03-14T18:43:40.200Z,3.53
2023-03-14T18:46:07.129Z,3.60
2023-03-14T18:48:33.847Z,3.30
2023-03-14T18:51:03.046Z,3.70
2023-03-14T18:53:32.451Z,3.65
2023-03-14T18:55:59.928Z,4.03
2023-03-14T18:58:29.677Z,3.50
2023-03-14T19:01:02.440Z,2.70
2023-03-14T19:03:30.477Z,3.25
2023-03-14T19:05:58.559Z,3.10
2023-03-14T19:08:26.830Z,3.10
2023-03-14T19:10:56.116Z,2.80
2023-03-14T19:13:23.481Z,2.72
2023-03-14T19:15:50.282Z,2.72
2023-03-14T19:18:17.462Z,2.65
2023-03-14T19:20:47.646Z,3.28
2023-03-14T19:23:14.343Z,3.70
2023-03-14T19:25:45.249Z,2.88
2023-03-14T19:28:11.962Z,3.53
2023-03-14T19:30:38.644Z,4.28
2023-03-14T19:33:05.432Z,4.43
2023-03-14T19:35:32.120Z,4.90
2023-03-14T19:37:58.917Z,4.68
2023-03-14T19:40:25.561Z,5.22
2023-03-14T19:42:52.249Z,4.43
2023-03-14T19:45:19.294Z,3.45
2023-03-14T19:47:45.963Z,3.78
2023-03-14T19:50:13.198Z,4.07
2023-03-14T19:52:44.011Z,3.08
2023-03-14T19:55:12.850Z,3.70
2023-03-14T19:57:40.151Z,2.92
2023-03-14T20:00:14.918Z,2.80
2023-03-14T20:02:42.051Z,2.00
2023-03-14T20:05:09.123Z,2.00
2023-03-14T20:07:36.858Z,2.70
2023-03-14T20:10:04.170Z,2.40
2023-03-14T20:12:32.135Z,2.30
2023-03-14T20:14:58.802Z,2.10
2023-03-14T20:17:27.459Z,2.17
2023-03-14T20:19:54.838Z,2.05
2023-03-14T20:22:21.407Z,1.95
2023-03-14T20:24:48.196Z,2.40
2023-03-14T20:27:14.738Z,2.15
2023-03-14T20:29:41.297Z,2.13
2023-03-14T20:32:09.536Z,2.35
2023-03-14T20:34:36.180Z,2.17
2023-03-14T20:37:03.280Z,2.20
2023-03-14T20:39:29.898Z,2.13
2023-03-14T20:41:56.416Z,2.10
2023-03-14T20:44:23.016Z,2.35
2023-03-14T20:46:49.510Z,2.40
2023-03-14T20:49:17.497Z,2.40
2023-03-14T20:51:44.019Z,2.28
2023-03-14T20:54:14.249Z,2.10
2023-03-14T20:56:40.817Z,2.40
2023-03-14T20:59:07.389Z,2.40
2023-03-14T21:01:33.919Z,2.17
2023-03-14T21:04:00.566Z,2.20
2023-03-14T21:06:27.123Z,2.35
2023-03-14T21:08:53.656Z,2.30
2023-03-14T21:11:20.194Z,2.20
2023-03-14T21:13:46.735Z,2.50
2023-03-14T21:16:13.290Z,2.50
2023-03-14T21:18:39.850Z,2.50
2023-03-14T21:21:06.702Z,2.45
2023-03-14T21:23:34.642Z,2.50
2023-03-14T21:26:02.527Z,2.50
2023-03-14T21:28:29.181Z,2.42
2023-03-14T21:30:56.672Z,2.50
2023-03-14T21:33:23.483Z,2.58
2023-03-14T21:35:52.649Z,2.90
2023-03-14T21:38:19.173Z,2.90
2023-03-14T21:40:50.047Z,2.80
2023-03-14T21:43:19.391Z,2.63
2023-03-14T21:45:48.399Z,2.50
2023-03-14T21:48:15.096Z,2.55
2023-03-14T21:50:41.822Z,3.00
2023-03-14T21:53:08.433Z,2.85
2023-03-14T21:55:35.073Z,3.00
2023-03-14T21:58:02.807Z,3.50
2023-03-14T22:00:29.560Z,3.15
2023-03-14T22:03:12.725Z,3.00
2023-03-14T22:05:43.182Z,3.10
2023-03-14T22:08:10.135Z,2.80
2023-03-14T22:10:36.720Z,3.35
2023-03-14T22:13:03.244Z,3.50
2023-03-14T22:15:29.852Z,3.20
2023-03-14T22:17:56.340Z,3.13
2023-03-14T22:20:22.893Z,3.05
2023-03-14T22:22:49.404Z,3.60
2023-03-14T22:25:15.970Z,2.80
2023-03-14T22:27:42.513Z,3.10
2023-03-14T22:30:09.867Z,3.10
2023-03-14T22:32:36.444Z,3.20
2023-03-14T22:35:03.662Z,3.42
2023-03-14T22:37:30.143Z,3.35
2023-03-14T22:39:56.635Z,3.50
2023-03-14T22:42:23.177Z,3.70
2023-03-14T22:44:52.061Z,3.38
2023-03-14T22:47:18.629Z,3.10
2023-03-14T22:49:45.240Z,3.30
2023-03-14T22:52:12.085Z,3.53
2023-03-14T22:54:38.834Z,3.60
2023-03-14T22:57:05.444Z,3.33
2023-03-14T22:59:31.933Z,3.67
2023-03-14T23:01:59.717Z,4.22
2023-03-14T23:04:26.975Z,3.25
2023-03-14T23:06:53.515Z,3.65
2023-03-14T23:09:20.084Z,3.53
2023-03-14T23:11:46.638Z,4.20
2023-03-14T23:14:13.837Z,3.83
2023-03-14T23:16:41.128Z,4.30
2023-03-14T23:19:09.849Z,4.57
2023-03-14T23:21:36.886Z,4.60
2023-03-14T23:24:05.906Z,5.15
2023-03-14T23:26:36.246Z,5.40
2023-03-14T23:29:06.659Z,5.85
2023-03-14T23:31:34.061Z,5.10
2023-03-14T23:34:01.177Z,6.93
2023-03-14T23:36:27.786Z,5.93
2023-03-14T23:38:54.291Z,5.90
2023-03-14T23:41:20.949Z,6.32
2023-03-14T23:43:47.966Z,5.43
2023-03-14T23:46:15.877Z,4.70
2023-03-14T23:48:46.973Z,5.20
2023-03-14T23:51:14.540Z,4.97
2023-03-14T23:53:41.339Z,4.97
2023-03-14T23:56:08.607Z,4.45
2023-03-14T23:58:36.271Z,4.38
